createdAt,value
2017-11-17T00:00:45.313Z,1011.2
2017-11-17T00:01:46.709Z,1011.2
2017-11-17T00:02:48.101Z,1011.2
2017-11-17T00:03:49.488Z,1011.1
2017-11-17T00:04:50.878Z,1011.2
2017-11-17T00:05:52.268Z,1011.2
2017-11-17T00:06:53.657Z,1011.3
2017-11-17T00:07:55.051Z,1011.3
2017-11-17T00:08:56.440Z,1011.3
2017-11-17T00:09:57.829Z,1011.3
2017-11-17T00:10:59.218Z,1011.3
2017-11-17T00:12:00.606Z,1011.3
2017-11-17T00:13:01.995Z,1011.3
2017-11-17T00:14:03.384Z,1011.3
2017-11-17T00:15:04.778Z,1011.3
2017-11-17T00:16:06.168Z,1011.3
2017-11-17T00:17:07.561Z,1011.3
2017-11-17T00:18:08.949Z,1011.3
2017-11-17T00:19:10.341Z,1011.3
2017-11-17T00:20:11.729Z,1011.3
2017-11-17T00:21:13.121Z,1011.2
2017-11-17T00:22:14.508Z,1011.3
2017-11-17T00:23:15.899Z,1011.2
2017-11-17T00:24:17.295Z,1011.2
2017-11-17T00:25:18.683Z,1011.2
2017-11-17T00:26:20.073Z,1011.3
2017-11-17T00:27:21.464Z,1011.2
2017-11-17T00:28:22.853Z,1011.3
2017-11-17T00:29:24.245Z,1011.2
2017-11-17T00:30:25.637Z,1011.2
2017-11-17T00:31:27.033Z,1011.3
2017-11-17T00:32:28.422Z,1011.2
2017-11-17T00:33:29.811Z,1011.2
2017-11-17T00:34:31.203Z,1011.2
2017-11-17T00:35:32.591Z,1011.2
2017-11-17T00:36:33.983Z,1011.2
2017-11-17T00:37:35.402Z,1011.3
2017-11-17T00:38:36.764Z,1011.2
2017-11-17T00:39:38.151Z,1011.2
2017-11-17T00:40:39.550Z,1011.3
2017-11-17T00:41:40.940Z,1011.2
2017-11-17T00:42:42.329Z,1011.3
2017-11-17T00:43:43.716Z,1011.3
2017-11-17T00:44:45.107Z,1011.3
2017-11-17T00:45:46.505Z,1011.3
2017-11-17T00:46:47.887Z,1011.3
2017-11-17T00:47:49.279Z,1011.3
2017-11-17T00:48:50.666Z,1011.3
2017-11-17T00:49:52.056Z,1011.3
2017-11-17T00:50:53.448Z,1011.3
2017-11-17T00:51:54.836Z,1011.3
2017-11-17T00:52:56.228Z,1011.3
2017-11-17T00:53:57.619Z,1011.3
2017-11-17T00:54:59.009Z,1011.3
2017-11-17T00:56:00.397Z,1011.3
2017-11-17T00:57:01.784Z,1011.3
2017-11-17T00:58:03.176Z,1011.3
2017-11-17T00:59:04.563Z,1011.3
2017-11-17T01:00:05.956Z,1011.3
2017-11-17T01:01:07.343Z,1011.3
2017-11-17T01:02:08.729Z,1011.3
2017-11-17T01:03:10.120Z,1011.2
2017-11-17T01:04:11.507Z,1011.3
2017-11-17T01:05:12.928Z,1011.3
2017-11-17T01:06:14.320Z,1011.3
2017-11-17T01:07:15.715Z,1011.3
2017-11-17T01:08:17.101Z,1011.3
2017-11-17T01:09:18.491Z,1011.3
2017-11-17T01:10:19.878Z,1011.3
2017-11-17T01:11:21.267Z,1011.3
2017-11-17T01:12:22.658Z,1011.3
2017-11-17T01:13:24.049Z,1011.3
2017-11-17T01:14:25.446Z,1011.3
2017-11-17T01:15:26.831Z,1011.3
2017-11-17T01:16:28.219Z,1011.3
2017-11-17T01:17:29.611Z,1011.3
2017-11-17T01:18:31.001Z,1011.3
2017-11-17T01:19:32.392Z,1011.3
2017-11-17T01:20:33.784Z,1011.3
2017-11-17T01:21:35.179Z,1011.3
2017-11-17T01:22:36.564Z,1011.3
2017-11-17T01:23:37.952Z,1011.3
2017-11-17T01:24:39.342Z,1011.3
2017-11-17T01:25:40.732Z,1011.3
2017-11-17T01:26:42.122Z,1011.3
2017-11-17T01:27:43.511Z,1011.3
2017-11-17T01:28:44.902Z,1011.3
2017-11-17T01:29:46.291Z,1011.3
2017-11-17T01:30:47.682Z,1011.4
2017-11-17T01:31:49.074Z,1011.4
2017-11-17T01:32:50.495Z,1011.4
2017-11-17T01:33:51.855Z,1011.4
2017-11-17T01:34:53.245Z,1011.4
2017-11-17T01:35:54.636Z,1011.4
2017-11-17T01:36:56.022Z,1011.5
2017-11-17T01:37:57.410Z,1011.4
2017-11-17T01:38:58.800Z,1011.4
2017-11-17T01:40:00.191Z,1011.4
2017-11-17T01:41:01.585Z,1011.4
2017-11-17T01:42:02.973Z,1011.5
2017-11-17T01:43:04.364Z,1011.4
2017-11-17T01:44:05.752Z,1011.4
2017-11-17T01:45:07.138Z,1011.4
2017-11-17T01:46:08.531Z,1011.4
2017-11-17T01:47:09.923Z,1011.5
2017-11-17T01:48:11.312Z,1011.4
2017-11-17T01:49:12.702Z,1011.4
2017-11-17T01:50:14.091Z,1011.5
2017-11-17T01:51:15.480Z,1011.5
2017-11-17T01:52:16.868Z,1011.5
2017-11-17T01:53:18.256Z,1011.5
2017-11-17T01:54:19.644Z,1011.5
2017-11-17T01:55:21.036Z,1011.5
2017-11-17T01:56:22.429Z,1011.5
2017-11-17T01:57:23.819Z,1011.5
2017-11-17T01:58:25.221Z,1011.5
2017-11-17T01:59:26.616Z,1011.5
2017-11-17T02:00:27.999Z,1011.5
2017-11-17T02:01:29.386Z,1011.5
2017-11-17T02:02:30.775Z,1011.5
2017-11-17T02:03:32.168Z,1011.5
2017-11-17T02:04:33.564Z,1011.5
2017-11-17T02:05:34.950Z,1011.6
2017-11-17T02:06:36.336Z,1011.5
2017-11-17T02:07:37.722Z,1011.6
2017-11-17T02:08:39.114Z,1011.5
2017-11-17T02:09:40.503Z,1011.5
2017-11-17T02:10:41.895Z,1011.5
2017-11-17T02:11:43.289Z,1011.6
2017-11-17T02:12:44.676Z,1011.6
2017-11-17T02:13:46.063Z,1011.5
2017-11-17T02:14:47.452Z,1011.5
2017-11-17T02:15:48.840Z,1011.5
2017-11-17T02:16:50.233Z,1011.5
2017-11-17T02:17:51.623Z,1011.5
2017-11-17T02:18:53.015Z,1011.5
2017-11-17T02:19:54.404Z,1011.5
2017-11-17T02:20:55.794Z,1011.5
2017-11-17T02:21:57.182Z,1011.5
2017-11-17T02:22:58.575Z,1011.5
2017-11-17T02:23:59.964Z,1011.5
2017-11-17T02:25:01.353Z,1011.5
2017-11-17T02:26:02.742Z,1011.5
2017-11-17T02:27:04.129Z,1011.5
2017-11-17T02:28:05.517Z,1011.5
2017-11-17T02:29:06.911Z,1011.5
2017-11-17T02:30:08.301Z,1011.5
2017-11-17T02:31:09.690Z,1011.5
2017-11-17T02:32:11.080Z,1011.5
2017-11-17T02:33:12.473Z,1011.5
2017-11-17T02:34:13.857Z,1011.5
2017-11-17T02:35:15.246Z,1011.5
2017-11-17T02:36:16.635Z,1011.5
2017-11-17T02:37:18.033Z,1011.6
2017-11-17T02:38:19.418Z,1011.6
2017-11-17T02:39:20.810Z,1011.6
2017-11-17T02:40:22.199Z,1011.6
2017-11-17T02:41:23.587Z,1011.6
2017-11-17T02:42:24.974Z,1011.6
2017-11-17T02:43:26.363Z,1011.5
2017-11-17T02:44:27.755Z,1011.6
2017-11-17T02:45:29.141Z,1011.5
2017-11-17T02:46:30.532Z,1011.6
2017-11-17T02:47:31.921Z,1011.6
2017-11-17T02:48:33.347Z,1011.6
2017-11-17T02:49:34.733Z,1011.5
2017-11-17T02:50:36.130Z,1011.5
2017-11-17T02:51:37.519Z,1011.6
2017-11-17T02:52:38.910Z,1011.5
2017-11-17T02:53:40.301Z,1011.5
2017-11-17T02:54:41.693Z,1011.5
2017-11-17T02:55:43.083Z,1011.5
2017-11-17T02:56:44.472Z,1011.5
2017-11-17T02:57:45.863Z,1011.6
2017-11-17T02:58:47.253Z,1011.5
2017-11-17T02:59:48.643Z,1011.6
2017-11-17T03:00:50.036Z,1011.6
2017-11-17T03:01:51.424Z,1011.5
2017-11-17T03:02:52.810Z,1011.6
2017-11-17T03:03:54.198Z,1011.6
2017-11-17T03:04:55.589Z,1011.7
2017-11-17T03:05:56.977Z,1011.7
2017-11-17T03:06:58.368Z,1011.7
2017-11-17T03:07:59.757Z,1011.7
2017-11-17T03:09:01.148Z,1011.7
2017-11-17T03:10:02.536Z,1011.7
2017-11-17T03:11:03.879Z,1011.8
2017-11-17T03:12:05.269Z,1011.8
2017-11-17T03:13:06.658Z,1011.7
2017-11-17T03:14:08.048Z,1011.8
2017-11-17T03:15:09.442Z,1011.8
2017-11-17T03:16:10.838Z,1011.8
2017-11-17T03:17:12.227Z,1011.8
2017-11-17T03:18:13.613Z,1011.8
2017-11-17T03:19:15.005Z,1011.8
2017-11-17T03:20:16.391Z,1011.8
2017-11-17T03:21:17.780Z,1011.8
2017-11-17T03:22:19.170Z,1011.8
2017-11-17T03:23:20.559Z,1011.9
2017-11-17T03:24:21.949Z,1011.9
2017-11-17T03:25:23.337Z,1011.9
2017-11-17T03:26:24.728Z,1011.9
2017-11-17T03:27:26.117Z,1011.9
2017-11-17T03:28:27.511Z,1011.9
2017-11-17T03:29:28.901Z,1012.0
2017-11-17T03:30:30.293Z,1012.0
2017-11-17T03:31:31.683Z,1012.0
2017-11-17T03:32:33.067Z,1012.0
2017-11-17T03:33:34.456Z,1012.0
2017-11-17T03:34:35.847Z,1012.0
2017-11-17T03:35:37.234Z,1012.1
2017-11-17T03:36:38.623Z,1012.1
2017-11-17T03:37:40.019Z,1012.1
2017-11-17T03:38:41.410Z,1012.0
2017-11-17T03:39:42.798Z,1012.1
2017-11-17T03:40:44.195Z,1012.1
2017-11-17T03:41:45.578Z,1012.1
2017-11-17T03:42:46.972Z,1012.1
2017-11-17T03:43:48.362Z,1012.1
2017-11-17T03:44:49.754Z,1012.1
2017-11-17T03:45:51.143Z,1012.2
2017-11-17T03:46:52.531Z,1012.1
2017-11-17T03:47:53.920Z,1012.1
2017-11-17T03:48:55.312Z,1012.2
2017-11-17T03:49:56.699Z,1012.1
2017-11-17T03:50:58.092Z,1012.2
2017-11-17T03:51:59.483Z,1012.2
2017-11-17T03:53:00.871Z,1012.1
2017-11-17T03:54:02.260Z,1012.2
2017-11-17T03:55:03.651Z,1012.2
2017-11-17T03:56:05.041Z,1012.2
2017-11-17T03:57:06.430Z,1012.2
2017-11-17T03:58:07.826Z,1012.2
2017-11-17T03:59:09.213Z,1012.2
2017-11-17T04:00:10.604Z,1012.3
2017-11-17T04:01:11.991Z,1012.3
2017-11-17T04:02:13.380Z,1012.3
2017-11-17T04:03:14.771Z,1012.3
2017-11-17T04:04:16.162Z,1012.3
2017-11-17T04:05:17.551Z,1012.3
2017-11-17T04:06:18.950Z,1012.3
2017-11-17T04:07:20.333Z,1012.3
2017-11-17T04:08:21.719Z,1012.3
2017-11-17T04:09:23.110Z,1012.3
2017-11-17T04:10:24.497Z,1012.3
2017-11-17T04:11:25.889Z,1012.3
2017-11-17T04:12:27.273Z,1012.3
2017-11-17T04:13:28.662Z,1012.3
2017-11-17T04:14:30.054Z,1012.3
2017-11-17T04:15:31.444Z,1012.2
2017-11-17T04:16:32.836Z,1012.3
2017-11-17T04:17:34.228Z,1012.2
2017-11-17T04:18:35.623Z,1012.3
2017-11-17T04:19:37.011Z,1012.3
2017-11-17T04:20:38.402Z,1012.3
2017-11-17T04:21:39.793Z,1012.4
2017-11-17T04:22:41.187Z,1012.4
2017-11-17T04:23:42.568Z,1012.4
2017-11-17T04:24:43.956Z,1012.4
2017-11-17T04:25:45.350Z,1012.4
2017-11-17T04:26:46.739Z,1012.4
2017-11-17T04:27:48.130Z,1012.4
2017-11-17T04:28:49.520Z,1012.3
2017-11-17T04:29:50.907Z,1012.4
2017-11-17T04:30:52.297Z,1012.4
2017-11-17T04:31:53.686Z,1012.4
2017-11-17T04:32:55.085Z,1012.4
2017-11-17T04:33:56.510Z,1012.4
2017-11-17T04:34:57.899Z,1012.4
2017-11-17T04:35:59.286Z,1012.4
2017-11-17T04:37:00.675Z,1012.4
2017-11-17T04:38:02.072Z,1012.4
2017-11-17T04:39:03.454Z,1012.4
2017-11-17T04:40:04.843Z,1012.4
2017-11-17T04:41:06.234Z,1012.4
2017-11-17T04:42:07.633Z,1012.4
2017-11-17T04:43:09.021Z,1012.4
2017-11-17T04:44:10.413Z,1012.4
2017-11-17T04:45:11.807Z,1012.4
2017-11-17T04:46:13.197Z,1012.4
2017-11-17T04:47:14.584Z,1012.4
2017-11-17T04:48:15.974Z,1012.5
2017-11-17T04:49:17.368Z,1012.4
2017-11-17T04:50:18.754Z,1012.5
2017-11-17T04:51:20.145Z,1012.4
2017-11-17T04:52:21.533Z,1012.4
2017-11-17T04:53:22.921Z,1012.5
2017-11-17T04:54:24.309Z,1012.5
2017-11-17T04:55:25.701Z,1012.5
2017-11-17T04:56:27.092Z,1012.5
2017-11-17T04:57:28.478Z,1012.5
2017-11-17T04:58:29.870Z,1012.5
2017-11-17T04:59:31.257Z,1012.5
2017-11-17T05:00:32.647Z,1012.5
2017-11-17T05:01:34.039Z,1012.5
2017-11-17T05:02:35.427Z,1012.5
2017-11-17T05:03:36.819Z,1012.5
2017-11-17T05:04:38.207Z,1012.6
2017-11-17T05:05:39.594Z,1012.6
2017-11-17T05:06:40.982Z,1012.6
2017-11-17T05:07:42.372Z,1012.5
2017-11-17T05:08:43.760Z,1012.6
2017-11-17T05:09:45.147Z,1012.6
2017-11-17T05:10:46.541Z,1012.6
2017-11-17T05:11:47.925Z,1012.5
2017-11-17T05:12:49.315Z,1012.6
2017-11-17T05:13:50.704Z,1012.6
2017-11-17T05:14:52.095Z,1012.6
2017-11-17T05:15:53.487Z,1012.6
2017-11-17T05:16:54.875Z,1012.6
2017-11-17T05:17:56.265Z,1012.6
2017-11-17T05:18:57.651Z,1012.6
2017-11-17T05:19:59.039Z,1012.6
2017-11-17T05:21:00.432Z,1012.6
2017-11-17T05:22:01.816Z,1012.7
2017-11-17T05:23:03.208Z,1012.6
2017-11-17T05:24:04.598Z,1012.7
2017-11-17T05:25:05.987Z,1012.7
2017-11-17T05:26:07.373Z,1012.7
2017-11-17T05:27:08.763Z,1012.7
2017-11-17T05:28:10.148Z,1012.6
2017-11-17T05:29:11.565Z,1012.7
2017-11-17T05:30:12.924Z,1012.6
2017-11-17T05:31:14.314Z,1012.7
2017-11-17T05:32:15.703Z,1012.7
2017-11-17T05:33:17.093Z,1012.7
2017-11-17T05:34:18.478Z,1012.7
2017-11-17T05:35:19.866Z,1012.7
2017-11-17T05:36:21.256Z,1012.7
2017-11-17T05:37:22.646Z,1012.7
2017-11-17T05:38:24.035Z,1012.8
2017-11-17T05:39:25.424Z,1012.7
2017-11-17T05:40:26.813Z,1012.8
2017-11-17T05:41:28.201Z,1012.8
2017-11-17T05:42:29.589Z,1012.8
2017-11-17T05:43:30.975Z,1012.8
2017-11-17T05:44:32.364Z,1012.8
2017-11-17T05:45:33.753Z,1012.8
2017-11-17T05:46:35.145Z,1012.8
2017-11-17T05:47:36.531Z,1012.9
2017-11-17T05:48:37.915Z,1012.9
2017-11-17T05:49:39.301Z,1012.9
2017-11-17T05:50:40.691Z,1012.9
2017-11-17T05:51:42.085Z,1012.9
2017-11-17T05:52:43.475Z,1012.9
2017-11-17T05:53:44.859Z,1012.9
2017-11-17T05:54:46.251Z,1012.9
2017-11-17T05:55:47.635Z,1013.0
2017-11-17T05:56:49.026Z,1012.9
2017-11-17T05:57:50.416Z,1012.9
2017-11-17T05:58:51.807Z,1013.0
2017-11-17T05:59:53.193Z,1012.9
2017-11-17T06:00:54.590Z,1012.9
2017-11-17T06:01:55.972Z,1013.0
2017-11-17T06:02:57.359Z,1013.0
2017-11-17T06:03:58.751Z,1013.0
2017-11-17T06:05:00.138Z,1013.0
2017-11-17T06:06:01.531Z,1012.9
2017-11-17T06:07:02.914Z,1013.0
2017-11-17T06:08:04.300Z,1013.0
2017-11-17T06:09:05.688Z,1012.9
2017-11-17T06:10:07.074Z,1013.0
2017-11-17T06:11:08.463Z,1013.0
2017-11-17T06:12:09.849Z,1013.1
2017-11-17T06:13:11.236Z,1013.0
2017-11-17T06:14:12.625Z,1013.1
2017-11-17T06:15:14.024Z,1013.1
2017-11-17T06:16:15.446Z,1013.1
2017-11-17T06:17:16.986Z,1013.1
2017-11-17T06:18:18.372Z,1013.1
2017-11-17T06:19:19.765Z,1013.1
2017-11-17T06:20:21.185Z,1013.1
2017-11-17T06:21:22.556Z,1013.2
2017-11-17T06:22:23.945Z,1013.2
2017-11-17T06:23:25.330Z,1013.2
2017-11-17T06:24:26.717Z,1013.2
2017-11-17T06:25:28.104Z,1013.2
2017-11-17T06:26:29.494Z,1013.2
2017-11-17T06:27:30.880Z,1013.3
2017-11-17T06:28:32.273Z,1013.2
2017-11-17T06:29:33.664Z,1013.2
2017-11-17T06:30:35.050Z,1013.2
2017-11-17T06:31:36.439Z,1013.3
2017-11-17T06:32:37.825Z,1013.2
2017-11-17T06:33:39.215Z,1013.3
2017-11-17T06:34:40.609Z,1013.3
2017-11-17T06:35:41.995Z,1013.3
2017-11-17T06:36:43.387Z,1013.3
2017-11-17T06:37:44.774Z,1013.3
2017-11-17T06:38:46.160Z,1013.3
2017-11-17T06:39:47.549Z,1013.3
2017-11-17T06:40:48.937Z,1013.4
2017-11-17T06:41:50.345Z,1013.4
2017-11-17T06:42:51.734Z,1013.4
2017-11-17T06:43:53.124Z,1013.4
2017-11-17T06:44:54.519Z,1013.4
2017-11-17T06:45:55.899Z,1013.4
2017-11-17T06:46:57.285Z,1013.4
2017-11-17T06:47:58.678Z,1013.4
2017-11-17T06:49:00.065Z,1013.4
2017-11-17T06:50:01.464Z,1013.4
2017-11-17T06:51:02.852Z,1013.4
2017-11-17T06:52:04.232Z,1013.4
2017-11-17T06:53:05.619Z,1013.4
2017-11-17T06:54:07.012Z,1013.4
2017-11-17T06:55:08.402Z,1013.4
2017-11-17T06:56:09.791Z,1013.4
2017-11-17T06:57:11.179Z,1013.4
2017-11-17T06:58:12.570Z,1013.4
2017-11-17T06:59:13.960Z,1013.5
2017-11-17T07:00:15.345Z,1013.4
2017-11-17T07:01:16.735Z,1013.4
2017-11-17T07:02:18.125Z,1013.4
2017-11-17T07:03:19.515Z,1013.4
2017-11-17T07:04:20.903Z,1013.5
2017-11-17T07:05:22.295Z,1013.5
2017-11-17T07:06:23.683Z,1013.5
2017-11-17T07:07:25.068Z,1013.5
2017-11-17T07:08:26.458Z,1013.5
2017-11-17T07:09:27.852Z,1013.6
2017-11-17T07:10:29.239Z,1013.6
2017-11-17T07:11:30.633Z,1013.6
2017-11-17T07:12:32.027Z,1013.6
2017-11-17T07:13:33.417Z,1013.6
2017-11-17T07:14:34.804Z,1013.6
2017-11-17T07:15:36.191Z,1013.6
2017-11-17T07:16:37.583Z,1013.6
2017-11-17T07:17:38.971Z,1013.7
2017-11-17T07:18:40.363Z,1013.7
2017-11-17T07:19:41.754Z,1013.7
2017-11-17T07:20:43.142Z,1013.7
2017-11-17T07:21:44.536Z,1013.8
2017-11-17T07:22:45.925Z,1013.8
2017-11-17T07:23:47.313Z,1013.8
2017-11-17T07:24:48.705Z,1013.8
2017-11-17T07:25:50.100Z,1013.8
2017-11-17T07:26:51.492Z,1013.9
2017-11-17T07:27:52.883Z,1013.8
2017-11-17T07:28:54.270Z,1013.9
2017-11-17T07:29:55.672Z,1013.9
2017-11-17T07:30:57.055Z,1013.9
2017-11-17T07:31:58.447Z,1014.0
2017-11-17T07:32:59.842Z,1013.9
2017-11-17T07:34:01.231Z,1013.9
2017-11-17T07:35:02.623Z,1014.0
2017-11-17T07:36:04.010Z,1013.9
2017-11-17T07:37:05.399Z,1013.9
2017-11-17T07:38:06.788Z,1014.0
2017-11-17T07:39:08.179Z,1014.0
2017-11-17T07:40:09.574Z,1014.1
2017-11-17T07:41:10.963Z,1014.1
2017-11-17T07:42:12.354Z,1014.0
2017-11-17T07:43:13.748Z,1014.0
2017-11-17T07:44:15.139Z,1014.0
2017-11-17T07:45:16.530Z,1014.0
2017-11-17T07:46:17.920Z,1014.0
2017-11-17T07:47:19.316Z,1014.0
2017-11-17T07:48:20.708Z,1014.0
2017-11-17T07:49:22.097Z,1014.0
2017-11-17T07:50:23.489Z,1014.0
2017-11-17T07:51:24.880Z,1014.0
2017-11-17T07:52:26.270Z,1014.0
2017-11-17T07:53:27.658Z,1014.0
2017-11-17T07:54:29.053Z,1014.0
2017-11-17T07:55:30.445Z,1014.0
2017-11-17T07:56:31.838Z,1014.0
2017-11-17T07:57:33.223Z,1014.0
2017-11-17T07:58:34.618Z,1014.1
2017-11-17T07:59:36.003Z,1014.1
2017-11-17T08:00:37.439Z,1014.1
2017-11-17T08:01:38.833Z,1014.0
2017-11-17T08:02:40.223Z,1014.1
2017-11-17T08:03:41.611Z,1014.1
2017-11-17T08:04:43.005Z,1014.2
2017-11-17T08:05:44.390Z,1014.1
2017-11-17T08:06:45.784Z,1014.2
2017-11-17T08:07:47.174Z,1014.1
2017-11-17T08:08:48.573Z,1014.2
2017-11-17T08:09:49.961Z,1014.2
2017-11-17T08:10:51.349Z,1014.2
2017-11-17T08:11:52.736Z,1014.3
2017-11-17T08:12:54.131Z,1014.2
2017-11-17T08:13:55.528Z,1014.3
2017-11-17T08:14:56.911Z,1014.3
2017-11-17T08:15:58.304Z,1014.3
2017-11-17T08:16:59.697Z,1014.3
2017-11-17T08:18:01.092Z,1014.3
2017-11-17T08:19:02.481Z,1014.3
2017-11-17T08:20:03.875Z,1014.3
2017-11-17T08:21:05.270Z,1014.3
2017-11-17T08:22:06.669Z,1014.4
2017-11-17T08:23:08.051Z,1014.4
2017-11-17T08:24:09.444Z,1014.4
2017-11-17T08:25:10.832Z,1014.4
2017-11-17T08:26:12.225Z,1014.3
2017-11-17T08:27:13.614Z,1014.4
2017-11-17T08:28:15.011Z,1014.4
2017-11-17T08:29:16.404Z,1014.5
2017-11-17T08:30:17.798Z,1014.4
2017-11-17T08:31:19.195Z,1014.4
2017-11-17T08:32:20.588Z,1014.4
2017-11-17T08:33:21.979Z,1014.4
2017-11-17T08:34:23.371Z,1014.4
2017-11-17T08:35:24.761Z,1014.4
2017-11-17T08:36:26.153Z,1014.4
2017-11-17T08:37:27.550Z,1014.4
2017-11-17T08:38:28.945Z,1014.4
2017-11-17T08:39:30.334Z,1014.4
2017-11-17T08:40:31.728Z,1014.4
2017-11-17T08:41:33.118Z,1014.4
2017-11-17T08:42:34.509Z,1014.4
2017-11-17T08:43:35.903Z,1014.4
2017-11-17T08:44:37.300Z,1014.4
2017-11-17T08:45:38.693Z,1014.4
2017-11-17T08:46:40.083Z,1014.4
2017-11-17T08:47:41.476Z,1014.4
2017-11-17T08:48:42.866Z,1014.4
2017-11-17T08:49:44.260Z,1014.4
2017-11-17T08:50:45.657Z,1014.4
2017-11-17T08:51:47.050Z,1014.4
2017-11-17T08:52:48.444Z,1014.3
2017-11-17T08:53:49.833Z,1014.3
2017-11-17T08:54:51.222Z,1014.4
2017-11-17T08:55:52.612Z,1014.4
2017-11-17T08:56:54.002Z,1014.3
2017-11-17T08:57:55.398Z,1014.3
2017-11-17T08:58:56.792Z,1014.3
2017-11-17T08:59:58.183Z,1014.3
2017-11-17T09:00:59.572Z,1014.4
2017-11-17T09:02:00.965Z,1014.4
2017-11-17T09:03:02.354Z,1014.4
2017-11-17T09:04:03.745Z,1014.4
2017-11-17T09:05:05.139Z,1014.4
2017-11-17T09:06:06.535Z,1014.4
2017-11-17T09:07:07.930Z,1014.5
2017-11-17T09:08:09.320Z,1014.4
2017-11-17T09:09:10.710Z,1014.4
2017-11-17T09:10:12.102Z,1014.4
2017-11-17T09:11:13.496Z,1014.5
2017-11-17T09:12:14.887Z,1014.4
2017-11-17T09:13:16.283Z,1014.5
2017-11-17T09:14:17.674Z,1014.4
2017-11-17T09:15:19.067Z,1014.5
2017-11-17T09:16:20.455Z,1014.5
2017-11-17T09:17:21.844Z,1014.4
2017-11-17T09:18:23.236Z,1014.5
2017-11-17T09:19:24.631Z,1014.4
2017-11-17T09:20:26.028Z,1014.4
2017-11-17T09:21:27.418Z,1014.4
2017-11-17T09:22:28.809Z,1014.4
2017-11-17T09:23:30.202Z,1014.4
2017-11-17T09:24:31.594Z,1014.4
2017-11-17T09:25:32.987Z,1014.4
2017-11-17T09:26:34.381Z,1014.4
2017-11-17T09:27:35.776Z,1014.5
2017-11-17T09:28:37.170Z,1014.4
2017-11-17T09:29:38.563Z,1014.5
2017-11-17T09:30:39.955Z,1014.5
2017-11-17T09:31:41.351Z,1014.5
2017-11-17T09:32:42.743Z,1014.5
2017-11-17T09:33:44.138Z,1014.5
2017-11-17T09:34:45.538Z,1014.5
2017-11-17T09:35:46.928Z,1014.5
2017-11-17T09:36:48.321Z,1014.5
2017-11-17T09:37:49.713Z,1014.5
2017-11-17T09:38:51.110Z,1014.4
2017-11-17T09:39:52.502Z,1014.5
2017-11-17T09:40:53.897Z,1014.5
2017-11-17T09:41:55.292Z,1014.4
2017-11-17T09:42:56.687Z,1014.4
2017-11-17T09:43:58.081Z,1014.5
2017-11-17T09:44:59.473Z,1014.5
2017-11-17T09:46:00.929Z,1014.5
2017-11-17T09:47:02.324Z,1014.6
2017-11-17T09:48:03.718Z,1014.5
2017-11-17T09:49:05.113Z,1014.5
2017-11-17T09:50:06.510Z,1014.5
2017-11-17T09:51:07.908Z,1014.5
2017-11-17T09:52:09.288Z,1014.5
2017-11-17T09:53:10.693Z,1014.5
2017-11-17T09:54:12.084Z,1014.5
2017-11-17T09:55:13.480Z,1014.5
2017-11-17T09:56:14.878Z,1014.6
2017-11-17T09:57:16.281Z,1014.6
2017-11-17T09:58:17.671Z,1014.6
2017-11-17T09:59:19.060Z,1014.6
2017-11-17T10:00:20.456Z,1014.5
2017-11-17T10:01:21.847Z,1014.6
2017-11-17T10:02:23.241Z,1014.6
2017-11-17T10:03:24.633Z,1014.5
2017-11-17T10:04:26.031Z,1014.5
2017-11-17T10:05:28.772Z,1014.5
2017-11-17T10:06:30.200Z,1014.6
2017-11-17T10:07:31.560Z,1014.6
2017-11-17T10:08:32.955Z,1014.5
2017-11-17T10:09:34.348Z,1014.6
2017-11-17T10:10:35.744Z,1014.5
2017-11-17T10:11:37.144Z,1014.6
2017-11-17T10:12:38.540Z,1014.7
2017-11-17T10:13:39.936Z,1014.7
2017-11-17T10:14:41.327Z,1014.6
2017-11-17T10:15:42.722Z,1014.6
2017-11-17T10:16:44.115Z,1014.6
2017-11-17T10:17:45.519Z,1014.6
2017-11-17T10:18:46.916Z,1014.7
2017-11-17T10:19:48.314Z,1014.7
2017-11-17T10:20:49.709Z,1014.8
2017-11-17T10:21:51.107Z,1014.7
2017-11-17T10:22:52.505Z,1014.7
2017-11-17T10:23:53.899Z,1014.7
2017-11-17T10:24:55.300Z,1014.7
2017-11-17T10:25:56.698Z,1014.8
2017-11-17T10:26:58.098Z,1014.8
2017-11-17T10:27:59.488Z,1014.8
2017-11-17T10:29:00.884Z,1014.8
2017-11-17T10:30:02.291Z,1014.8
2017-11-17T10:31:03.698Z,1014.8
2017-11-17T10:32:05.160Z,1014.8
2017-11-17T10:33:06.562Z,1014.8
2017-11-17T10:34:07.958Z,1014.8
2017-11-17T10:35:09.353Z,1014.7
2017-11-17T10:36:10.751Z,1014.8
2017-11-17T10:37:12.146Z,1014.8
2017-11-17T10:38:13.549Z,1014.8
2017-11-17T10:39:14.948Z,1014.8
2017-11-17T10:40:16.363Z,1014.7
2017-11-17T10:41:17.756Z,1014.8
2017-11-17T10:42:19.152Z,1014.8
2017-11-17T10:43:20.548Z,1014.7
2017-11-17T10:44:21.942Z,1014.7
2017-11-17T10:45:23.346Z,1014.6
2017-11-17T10:46:24.749Z,1014.6
2017-11-17T10:47:26.149Z,1014.7
2017-11-17T10:48:27.544Z,1014.6
2017-11-17T10:49:28.948Z,1014.6
2017-11-17T10:50:30.342Z,1014.6
2017-11-17T10:51:31.742Z,1014.6
2017-11-17T10:52:33.141Z,1014.6
2017-11-17T10:53:34.541Z,1014.5
2017-11-17T10:54:35.940Z,1014.4
2017-11-17T10:55:37.340Z,1014.4
2017-11-17T10:56:38.738Z,1014.4
2017-11-17T10:57:40.134Z,1014.5
2017-11-17T10:58:41.533Z,1014.6
2017-11-17T10:59:43.018Z,1014.5
2017-11-17T11:00:44.422Z,1014.5
2017-11-17T11:01:45.827Z,1014.5
2017-11-17T11:02:47.232Z,1014.5
2017-11-17T11:03:48.630Z,1014.5
2017-11-17T11:04:50.027Z,1014.4
2017-11-17T11:05:51.426Z,1014.4
2017-11-17T11:06:52.846Z,1014.5
2017-11-17T11:07:54.225Z,1014.3
2017-11-17T11:08:55.626Z,1014.4
2017-11-17T11:09:57.021Z,1014.5
2017-11-17T11:10:58.416Z,1014.4
2017-11-17T11:11:59.814Z,1014.3
2017-11-17T11:13:01.211Z,1014.4
2017-11-17T11:14:02.612Z,1014.3
2017-11-17T11:15:04.011Z,1014.4
2017-11-17T11:16:05.410Z,1014.3
2017-11-17T11:17:06.807Z,1014.3
2017-11-17T11:18:08.202Z,1014.4
2017-11-17T11:19:09.602Z,1014.3
2017-11-17T11:20:10.999Z,1014.3
2017-11-17T11:21:12.401Z,1014.3
2017-11-17T11:22:13.801Z,1014.3
2017-11-17T11:23:15.211Z,1014.3
2017-11-17T11:24:16.599Z,1014.2
2017-11-17T11:25:17.992Z,1014.2
2017-11-17T11:26:19.392Z,1014.2
2017-11-17T11:27:20.836Z,1014.2
2017-11-17T11:28:22.232Z,1014.1
2017-11-17T11:29:23.631Z,1014.0
2017-11-17T11:30:25.032Z,1014.0
2017-11-17T11:31:26.430Z,1014.1
2017-11-17T11:32:27.830Z,1014.2
2017-11-17T11:33:29.229Z,1014.2
2017-11-17T11:34:30.622Z,1014.1
2017-11-17T11:35:32.022Z,1014.1
2017-11-17T11:36:33.420Z,1014.1
2017-11-17T11:37:34.816Z,1014.1
2017-11-17T11:38:36.215Z,1014.2
2017-11-17T11:39:37.612Z,1014.2
2017-11-17T11:40:39.008Z,1014.2
2017-11-17T11:41:40.408Z,1014.2
2017-11-17T11:42:41.810Z,1014.2
2017-11-17T11:43:43.210Z,1014.2
2017-11-17T11:44:44.615Z,1014.1
2017-11-17T11:45:46.016Z,1014.2
2017-11-17T11:46:47.414Z,1014.2
2017-11-17T11:47:48.818Z,1014.1
2017-11-17T11:48:50.218Z,1014.1
2017-11-17T11:49:51.616Z,1014.1
2017-11-17T11:50:53.016Z,1014.1
2017-11-17T11:51:54.418Z,1014.0
2017-11-17T11:52:55.813Z,1014.1
2017-11-17T11:53:57.210Z,1014.1
2017-11-17T11:54:58.620Z,1014.1
2017-11-17T11:56:00.009Z,1014.0
2017-11-17T11:57:01.405Z,1014.0
2017-11-17T11:58:02.809Z,1014.1
2017-11-17T11:59:04.206Z,1014.0
2017-11-17T12:00:05.603Z,1014.0
2017-11-17T12:01:06.998Z,1014.0
2017-11-17T12:02:08.395Z,1014.0
2017-11-17T12:03:09.796Z,1014.1
2017-11-17T12:04:11.202Z,1014.2
2017-11-17T12:05:12.601Z,1014.1
2017-11-17T12:06:14.001Z,1014.1
2017-11-17T12:07:15.410Z,1014.1
2017-11-17T12:08:16.811Z,1014.2
2017-11-17T12:09:18.209Z,1014.0
2017-11-17T12:10:19.609Z,1014.1
2017-11-17T12:11:21.009Z,1014.1
2017-11-17T12:12:22.408Z,1014.1
2017-11-17T12:13:23.830Z,1014.0
2017-11-17T12:14:25.228Z,1014.0
2017-11-17T12:15:26.634Z,1014.0
2017-11-17T12:16:28.024Z,1014.0
2017-11-17T12:17:29.424Z,1013.9
2017-11-17T12:18:30.823Z,1014.0
2017-11-17T12:19:32.221Z,1013.9
2017-11-17T12:20:33.622Z,1014.0
2017-11-17T12:21:35.017Z,1013.9
2017-11-17T12:22:36.417Z,1014.0
2017-11-17T12:23:37.813Z,1014.0
2017-11-17T12:24:39.212Z,1013.9
2017-11-17T12:25:40.608Z,1014.0
2017-11-17T12:26:42.004Z,1014.0
2017-11-17T12:27:43.402Z,1014.0
2017-11-17T12:28:44.801Z,1013.9
2017-11-17T12:29:46.203Z,1013.9
2017-11-17T12:30:47.592Z,1013.9
2017-11-17T12:31:48.990Z,1013.9
2017-11-17T12:32:50.390Z,1013.9
2017-11-17T12:33:51.819Z,1014.0
2017-11-17T12:34:53.214Z,1013.9
2017-11-17T12:35:54.609Z,1013.9
2017-11-17T12:36:56.002Z,1013.9
2017-11-17T12:37:57.400Z,1013.9
2017-11-17T12:38:58.793Z,1014.0
2017-11-17T12:40:00.190Z,1013.9
2017-11-17T12:41:01.589Z,1013.9
2017-11-17T12:42:02.986Z,1014.0
2017-11-17T12:43:04.382Z,1013.9
2017-11-17T12:44:05.777Z,1013.9
2017-11-17T12:45:07.173Z,1013.9
2017-11-17T12:46:08.572Z,1013.9